Time;durP1;ratioP1;P1;durP2;ratioP2;P2;SDS_P1;SDS_P2;PMS_P1;PMS_P2;Temp;Humidity;BMP_temperature;BMP_pressure;BME280_temperature;BME280_humidity;BME280_pressure;Samples;Min_cycle;Max_cycle;Signal;HPM_P1;HPM_P2
2023/12/03 00:00:33;;;;;;;9.80;6.23;;;;;;;0.55;62.66;99959.97;4965712;28;101783;-73
2023/12/03 00:02:58;;;;;;;11.53;7.13;;;;;;;0.59;62.72;99966.91;4968045;28;97267;-74
2023/12/03 00:05:24;;;;;;;10.37;6.80;;;;;;;0.65;62.89;99974.66;4954576;28;97331;-73
2023/12/03 00:07:49;;;;;;;10.37;6.50;;;;;;;0.60;62.69;99971.19;4968697;28;98253;-73
2023/12/03 00:10:15;;;;;;;12.53;7.53;;;;;;;0.56;62.49;99966.91;4983087;28;101130;-74
2023/12/03 00:12:40;;;;;;;9.73;6.10;;;;;;;0.60;62.85;99966.88;4948546;28;96713;-79
2023/12/03 00:15:07;;;;;;;9.40;6.37;;;;;;;0.59;62.25;99979.81;4982996;28;97898;-73
2023/12/03 00:17:32;;;;;;;11.07;6.83;;;;;;;0.42;63.04;99972.88;4977991;28;98076;-74
2023/12/03 00:19:58;;;;;;;11.77;6.30;;;;;;;0.32;63.43;99955.69;4949947;28;100664;-74
2023/12/03 00:22:23;;;;;;;11.70;7.33;;;;;;;0.50;63.17;99980.66;4982094;28;96793;-73
2023/12/03 00:24:49;;;;;;;10.80;6.50;;;;;;;0.58;62.97;99978.97;4945486;28;96852;-73
2023/12/03 00:27:14;;;;;;;12.07;6.50;;;;;;;0.52;63.14;99984.09;4967258;28;98022;-74
2023/12/03 00:29:40;;;;;;;10.50;6.80;;;;;;;0.48;62.89;99976.34;4968132;28;101144;-74
2023/12/03 00:32:05;;;;;;;10.17;6.60;;;;;;;0.56;63.02;99984.97;4967612;28;97572;-73
2023/12/03 00:34:31;;;;;;;9.47;6.83;;;;;;;0.47;62.91;99985.81;4962219;28;96911;-74
2023/12/03 00:36:56;;;;;;;11.50;6.20;;;;;;;0.62;63.32;99992.72;4977487;28;97331;-73
2023/12/03 00:39:22;;;;;;;9.57;6.93;;;;;;;0.58;62.81;99993.56;4980899;28;98278;-73
2023/12/03 00:41:48;;;;;;;10.43;5.57;;;;;;;0.59;62.94;99991.00;4979654;28;98122;-73
2023/12/03 00:44:13;;;;;;;8.00;6.13;;;;;;;0.63;62.93;99990.13;4978295;28;96892;-73
2023/12/03 00:46:38;;;;;;;9.83;5.90;;;;;;;0.70;62.99;99996.19;4980846;28;97483;-75
2023/12/03 00:49:04;;;;;;;6.93;5.10;;;;;;;0.71;63.01;100009.97;4967810;28;97609;-73
2023/12/03 00:51:30;;;;;;;10.00;6.67;;;;;;;0.75;63.05;100006.50;4966641;28;97319;-74
2023/12/03 00:53:55;;;;;;;10.07;5.73;;;;;;;0.74;62.79;100008.25;4964641;28;96867;-74
2023/12/03 00:56:21;;;;;;;8.50;4.73;;;;;;;0.67;62.94;100012.53;4965979;28;101097;-77
2023/12/03 00:58:46;;;;;;;8.83;5.33;;;;;;;0.59;62.93;100000.47;4981764;28;97370;-74
2023/12/03 01:01:11;;;;;;;7.67;4.73;;;;;;;0.48;63.61;100018.53;4982217;28;97140;-73
2023/12/03 01:03:37;;;;;;;8.80;6.23;;;;;;;0.46;63.63;100015.06;4967271;28;97540;-74
2023/12/03 01:06:03;;;;;;;7.37;5.00;;;;;;;0.49;63.84;100029.72;4981922;28;101143;-73
2023/12/03 01:08:28;;;;;;;8.33;5.57;;;;;;;0.49;64.24;100030.56;4964665;28;100793;-73
2023/12/03 01:10:53;;;;;;;7.77;5.47;;;;;;;0.50;63.85;100034.03;4966586;28;96852;-73
2023/12/03 01:13:19;;;;;;;8.73;6.50;;;;;;;0.50;63.67;100036.63;4960447;28;98192;-73
2023/12/03 01:15:45;;;;;;;11.37;5.90;;;;;;;0.59;63.92;100021.16;4967348;28;100970;-73
2023/12/03 01:18:11;;;;;;;13.87;7.37;;;;;;;0.64;63.44;100029.75;4947420;28;101464;-73
2023/12/03 01:20:38;;;;;;;10.63;6.67;;;;;;;0.70;63.52;100045.28;4969107;28;97062;-73
2023/12/03 01:23:04;;;;;;;11.87;6.97;;;;;;;0.58;63.82;100042.66;4968540;28;97180;-74
2023/12/03 01:25:30;;;;;;;9.27;6.10;;;;;;;0.62;63.41;100045.25;4964972;28;101108;-73
2023/12/03 01:27:56;;;;;;;9.40;6.00;;;;;;;0.59;64.09;100045.25;4965089;28;99682;-76
2023/12/03 01:30:22;;;;;;;10.23;5.90;;;;;;;0.57;63.76;100059.00;4950002;28;98611;-73
2023/12/03 01:32:47;;;;;;;8.97;6.23;;;;;;;0.51;64.19;100059.00;4966267;28;97151;-76
2023/12/03 01:35:13;;;;;;;10.17;6.93;;;;;;;0.55;64.23;100060.72;4965424;28;101217;-73
2023/12/03 01:37:38;;;;;;;8.80;6.60;;;;;;;0.54;63.56;100059.88;4976615;28;98030;-73
2023/12/03 01:40:04;;;;;;;8.67;6.63;;;;;;;0.66;64.00;100053.88;4986174;28;96673;-73
2023/12/03 01:42:31;;;;;;;10.30;6.67;;;;;;;0.61;63.58;100051.28;4966637;28;97008;-73
2023/12/03 01:44:57;;;;;;;9.37;6.53;;;;;;;0.58;64.00;100052.97;4967136;28;97486;-73
2023/12/03 01:47:22;;;;;;;12.23;6.23;;;;;;;0.62;64.22;100055.59;4980717;28;97522;-73
2023/12/03 01:49:48;;;;;;;9.87;6.53;;;;;;;0.51;64.15;100046.09;4967300;28;96788;-72
2023/12/03 01:52:14;;;;;;;10.97;7.00;;;;;;;0.52;64.40;100048.66;4964303;28;96877;-73
2023/12/03 01:54:43;;;;;;;9.00;6.77;;;;;;;0.64;64.61;100065.91;4946842;28;100993;-73
2023/12/03 01:57:08;;;;;;;9.57;6.63;;;;;;;0.69;64.28;100053.88;4961164;28;100515;-74
2023/12/03 01:59:35;;;;;;;9.30;6.47;;;;;;;0.60;63.78;100046.97;4967027;28;97305;-74
2023/12/03 02:02:00;;;;;;;8.57;6.07;;;;;;;0.49;64.79;100060.72;4963887;28;97217;-74
2023/12/03 02:04:26;;;;;;;9.97;6.80;;;;;;;0.52;64.83;100056.41;4980503;28;97486;-74
2023/12/03 02:06:51;;;;;;;10.17;7.57;;;;;;;0.62;64.14;100062.47;4977484;28;101431;-74
2023/12/03 02:09:19;;;;;;;10.23;7.23;;;;;;;0.47;64.98;100062.41;4962086;28;97464;-75
2023/12/03 02:11:45;;;;;;;9.77;6.67;;;;;;;0.44;64.60;100071.06;4981138;28;97421;-74
2023/12/03 02:14:11;;;;;;;9.07;6.43;;;;;;;0.54;64.69;100077.09;4967485;28;100884;-74
2023/12/03 02:16:36;;;;;;;10.83;7.57;;;;;;;0.56;64.78;100075.38;4981020;28;97434;-74
2023/12/03 02:19:02;;;;;;;10.67;7.10;;;;;;;0.66;64.75;100079.69;4961913;28;98244;-76
2023/12/03 02:21:28;;;;;;;10.63;6.90;;;;;;;0.55;65.27;100078.81;5003777;28;98447;-74
2023/12/03 02:23:54;;;;;;;10.33;7.33;;;;;;;0.64;64.88;100084.00;4968848;28;98016;-74
2023/12/03 02:26:19;;;;;;;10.63;8.03;;;;;;;0.50;65.16;100071.06;4982287;28;97414;-76
2023/12/03 02:28:45;;;;;;;10.93;7.33;;;;;;;0.64;64.69;100087.47;4978195;28;96936;-77
2023/12/03 02:31:11;;;;;;;12.17;8.10;;;;;;;0.66;64.47;100090.03;4944439;28;97069;-74
2023/12/03 02:33:37;;;;;;;11.60;7.93;;;;;;;0.66;64.45;100093.47;4941622;28;100915;-74
2023/12/03 02:36:03;;;;;;;13.10;8.50;;;;;;;0.58;64.66;100084.88;4960216;28;100877;-74
2023/12/03 02:38:28;;;;;;;13.17;7.83;;;;;;;0.72;64.55;100096.94;4959988;28;97015;-74
2023/12/03 02:40:56;;;;;;;12.47;7.50;;;;;;;0.66;64.64;100102.94;4977797;28;98020;-73
2023/12/03 02:43:22;;;;;;;13.10;7.80;;;;;;;0.60;64.37;100106.38;4978325;28;98043;-74
2023/12/03 02:45:47;;;;;;;13.17;8.37;;;;;;;0.66;64.70;100106.41;4976896;28;97436;-75
2023/12/03 02:48:13;;;;;;;12.60;8.10;;;;;;;0.67;64.41;100109.88;4980235;28;97919;-76
2023/12/03 02:50:38;;;;;;;12.10;8.13;;;;;;;0.64;64.45;100113.31;4943654;28;97216;-74
2023/12/03 02:53:04;;;;;;;13.20;8.70;;;;;;;0.63;65.22;100111.56;4961870;28;97919;-74
2023/12/03 02:55:29;;;;;;;12.70;8.53;;;;;;;0.68;65.00;100114.16;4959283;28;101273;-74
2023/12/03 02:57:55;;;;;;;14.70;9.57;;;;;;;0.52;65.12;100120.13;4963789;28;96843;-76
2023/12/03 03:00:20;;;;;;;11.93;7.90;;;;;;;0.50;64.95;100116.69;4966056;28;96956;-74
2023/12/03 03:02:46;;;;;;;11.50;8.10;;;;;;;0.53;65.43;100121.88;4946076;28;101289;-74
2023/12/03 03:05:12;;;;;;;11.80;8.00;;;;;;;0.56;64.81;100107.25;4948639;28;101004;-75
2023/12/03 03:07:37;;;;;;;13.90;8.73;;;;;;;0.49;65.52;100123.56;4965277;28;97191;-78
2023/12/03 03:10:03;;;;;;;13.23;9.00;;;;;;;0.46;65.50;100120.97;4946946;28;97222;-77
2023/12/03 03:12:28;;;;;;;13.30;8.80;;;;;;;0.51;65.15;100124.44;4981338;28;101389;-74
2023/12/03 03:14:54;;;;;;;13.43;9.17;;;;;;;0.55;65.16;100123.56;4962392;28;98144;-74
2023/12/03 03:17:19;;;;;;;13.33;8.87;;;;;;;0.58;65.33;100133.06;4963296;28;97335;-74
2023/12/03 03:19:45;;;;;;;13.20;8.23;;;;;;;0.64;65.42;100138.25;4967834;28;97604;-74
2023/12/03 03:22:12;;;;;;;13.27;9.30;;;;;;;0.59;65.25;100142.56;4948138;28;101640;-74
2023/12/03 03:24:38;;;;;;;14.07;9.13;;;;;;;0.64;65.26;100141.72;4945300;28;101114;-74
2023/12/03 03:27:04;;;;;;;14.63;9.43;;;;;;;0.68;65.20;100143.44;4966610;28;96870;-74
2023/12/03 03:29:29;;;;;;;13.37;8.67;;;;;;;0.58;65.57;100146.88;4969220;28;98128;-74
2023/12/03 03:31:55;;;;;;;15.03;8.80;;;;;;;0.60;65.55;100147.72;4966971;28;101228;-75
2023/12/03 03:34:20;;;;;;;15.77;9.40;;;;;;;0.64;65.70;100144.31;4983050;28;98580;-74
2023/12/03 03:36:46;;;;;;;15.37;9.87;;;;;;;0.53;65.67;100155.47;4982089;28;97206;-74
2023/12/03 03:39:11;;;;;;;14.57;9.03;;;;;;;0.54;65.44;100157.16;4943135;28;97617;-74
2023/12/03 03:41:37;;;;;;;13.77;9.20;;;;;;;0.64;65.45;100159.81;4962559;28;98577;-74
2023/12/03 03:44:03;;;;;;;12.53;8.53;;;;;;;0.46;65.79;100149.38;4962715;28;100946;-74
2023/12/03 03:46:28;;;;;;;13.97;9.07;;;;;;;0.66;65.24;100164.97;4967867;28;97986;-73
2023/12/03 03:48:54;;;;;;;13.50;9.07;;;;;;;0.44;65.63;100158.88;4982330;28;96934;-77
2023/12/03 03:51:19;;;;;;;13.20;9.07;;;;;;;0.44;65.91;100172.63;4964633;28;101044;-74
2023/12/03 03:53:45;;;;;;;15.13;9.30;;;;;;;0.45;65.77;100174.34;4966052;28;101219;-74
2023/12/03 03:56:11;;;;;;;12.40;8.93;;;;;;;0.50;65.90;100178.69;4947517;28;97160;-76
2023/12/03 03:58:37;;;;;;;14.40;8.87;;;;;;;0.60;65.44;100173.56;4979329;28;98129;-74
2023/12/03 04:01:09;;;;;;;12.30;8.67;;;;;;;0.48;66.18;100175.22;4964380;28;101516;-74
2023/12/03 04:03:35;;;;;;;16.97;10.27;;;;;;;0.36;65.94;100174.31;4948518;28;100307;-74
2023/12/03 04:06:02;;;;;;;13.87;9.40;;;;;;;0.47;65.72;100182.13;4977909;28;98590;-74
2023/12/03 04:08:28;;;;;;;15.30;9.90;;;;;;;0.65;65.68;100179.59;4962369;28;97291;-74
2023/12/03 04:10:53;;;;;;;15.43;9.30;;;;;;;0.57;65.77;100180.44;4949700;28;101942;-74
2023/12/03 04:13:19;;;;;;;15.70;10.10;;;;;;;0.39;65.93;100186.38;4962075;28;101287;-75
2023/12/03 04:15:44;;;;;;;13.03;9.33;;;;;;;0.40;66.12;100193.25;4962623;28;96901;-74
2023/12/03 04:18:10;;;;;;;14.70;9.17;;;;;;;0.45;66.17;100201.91;4963327;28;97221;-74
2023/12/03 04:20:35;;;;;;;12.90;9.30;;;;;;;0.47;66.44;100204.47;4960679;28;101515;-75
2023/12/03 04:23:01;;;;;;;14.63;9.50;;;;;;;0.55;65.75;100202.78;4998842;28;102105;-74
2023/12/03 04:25:26;;;;;;;15.77;10.10;;;;;;;0.38;66.08;100193.28;4966569;28;97353;-74
2023/12/03 04:27:52;;;;;;;16.33;10.57;;;;;;;0.49;66.41;100210.53;4980027;28;96878;-78
2023/12/03 04:30:17;;;;;;;13.60;8.90;;;;;;;0.32;66.24;100223.34;4966569;28;101285;-74
2023/12/03 04:32:43;;;;;;;13.67;9.33;;;;;;;0.36;66.10;100228.53;4978409;28;97321;-75
2023/12/03 04:35:09;;;;;;;15.17;9.90;;;;;;;0.56;66.35;100232.97;4961640;28;96902;-73
2023/12/03 04:37:34;;;;;;;15.47;9.90;;;;;;;0.44;66.58;100229.44;4945365;28;97405;-74
2023/12/03 04:40:00;;;;;;;14.13;9.17;;;;;;;0.53;66.14;100235.53;4983482;28;97895;-75
2023/12/03 04:42:25;;;;;;;15.87;9.40;;;;;;;0.55;66.47;100239.81;4981317;28;97888;-74
2023/12/03 04:44:51;;;;;;;13.57;9.00;;;;;;;0.41;66.32;100238.91;4963691;28;96851;-74
2023/12/03 04:47:16;;;;;;;14.87;9.60;;;;;;;0.56;65.86;100241.56;4966062;28;98599;-75
2023/12/03 04:49:42;;;;;;;15.83;10.20;;;;;;;0.50;66.20;100235.50;4961888;28;97549;-74
2023/12/03 04:52:07;;;;;;;15.33;9.40;;;;;;;0.50;66.45;100241.53;4983036;28;101303;-73
2023/12/03 04:54:33;;;;;;;12.90;8.87;;;;;;;0.44;66.06;100241.50;4968335;28;96868;-74
2023/12/03 04:56:58;;;;;;;15.83;9.43;;;;;;;0.48;66.04;100252.72;4966213;28;97048;-74
2023/12/03 04:59:24;;;;;;;14.13;9.33;;;;;;;0.53;65.90;100263.94;4965366;28;97926;-75
2023/12/03 05:01:49;;;;;;;13.77;9.40;;;;;;;0.51;66.10;100263.06;4966845;28;97986;-74
2023/12/03 05:04:15;;;;;;;13.93;9.13;;;;;;;0.43;66.85;100263.00;4968285;28;97132;-73
2023/12/03 05:06:40;;;;;;;15.00;9.90;;;;;;;0.57;65.84;100270.84;4968356;28;97926;-75
2023/12/03 05:09:06;;;;;;;13.70;8.57;;;;;;;0.44;66.03;100268.19;4948718;28;101632;-75
2023/12/03 05:11:31;;;;;;;15.20;9.83;;;;;;;0.45;66.09;100277.66;4950166;28;101332;-74
2023/12/03 05:13:57;;;;;;;14.50;8.77;;;;;;;0.47;66.15;100282.84;4966597;28;96840;-76
2023/12/03 05:16:22;;;;;;;15.80;10.10;;;;;;;0.32;66.75;100277.56;4966317;28;96829;-74
2023/12/03 05:18:48;;;;;;;14.63;9.47;;;;;;;0.36;65.68;100272.44;4961560;28;101183;-74
2023/12/03 05:21:13;;;;;;;15.17;9.93;;;;;;;0.49;65.56;100283.69;4981663;28;97766;-75
2023/12/03 05:23:39;;;;;;;13.33;8.53;;;;;;;0.48;65.74;100294.91;4966867;28;98453;-75
2023/12/03 05:26:04;;;;;;;13.43;9.33;;;;;;;0.54;65.66;100291.50;4966770;28;97215;-74
2023/12/03 05:28:30;;;;;;;14.40;9.47;;;;;;;0.58;65.51;100294.13;4982908;28;97277;-74
2023/12/03 05:30:55;;;;;;;12.23;8.67;;;;;;;0.46;65.67;100291.44;4945527;28;101742;-74
2023/12/03 05:33:21;;;;;;;12.70;8.53;;;;;;;0.43;65.51;100294.84;4980152;28;96792;-75
2023/12/03 05:35:47;;;;;;;14.30;8.10;;;;;;;0.47;65.89;100295.75;4980847;28;96934;-74
2023/12/03 05:38:12;;;;;;;12.37;8.37;;;;;;;0.56;65.31;100298.41;4981749;28;100858;-74
2023/12/03 05:40:38;;;;;;;15.33;9.07;;;;;;;0.58;65.31;100311.31;4966256;28;97721;-74
2023/12/03 05:43:04;;;;;;;11.37;7.70;;;;;;;0.45;65.68;100311.25;4965500;28;97096;-74
2023/12/03 05:45:29;;;;;;;13.03;8.53;;;;;;;0.46;65.81;100325.00;4967451;28;97184;-74
2023/12/03 05:47:55;;;;;;;14.73;8.57;;;;;;;0.54;65.21;100331.09;4965269;28;101489;-76
2023/12/03 05:50:20;;;;;;;12.23;8.17;;;;;;;0.40;65.70;100319.81;4965633;28;100761;-74
2023/12/03 05:52:46;;;;;;;13.60;8.77;;;;;;;0.52;65.46;100322.47;4964790;28;96797;-77
2023/12/03 05:55:11;;;;;;;12.73;8.47;;;;;;;0.47;66.02;100328.44;4982764;28;97930;-77
2023/12/03 05:57:37;;;;;;;12.63;8.13;;;;;;;0.54;65.21;100333.69;4980619;28;97644;-75
2023/12/03 06:00:04;;;;;;;13.13;8.90;;;;;;;0.34;65.17;100317.19;4983990;28;98635;-74
2023/12/03 06:02:30;;;;;;;14.23;9.37;;;;;;;0.43;65.78;100337.91;4950495;28;97203;-74
2023/12/03 06:04:55;;;;;;;15.57;9.30;;;;;;;0.44;65.75;100337.94;4969166;28;96915;-75
2023/12/03 06:07:21;;;;;;;15.67;9.80;;;;;;;0.45;65.87;100336.22;4955731;28;97566;-74
2023/12/03 06:09:47;;;;;;;12.97;8.67;;;;;;;0.41;65.77;100345.66;4958310;28;97836;-74
2023/12/03 06:12:12;;;;;;;15.67;9.77;;;;;;;0.48;65.94;100346.56;4956966;28;97187;-74
2023/12/03 06:14:38;;;;;;;14.53;9.07;;;;;;;0.50;65.81;100346.59;4973153;28;96907;-74
2023/12/03 06:17:03;;;;;;;16.23;10.13;;;;;;;0.55;65.19;100347.47;4959645;28;101612;-74
2023/12/03 06:19:29;;;;;;;14.17;8.97;;;;;;;0.66;65.25;100359.59;4956135;28;100585;-74
2023/12/03 06:21:55;;;;;;;12.50;8.67;;;;;;;0.67;65.15;100360.50;4972221;28;97213;-77
2023/12/03 06:24:20;;;;;;;12.80;9.10;;;;;;;0.68;64.99;100364.78;4973212;28;96964;-74
2023/12/03 06:26:47;;;;;;;14.07;9.13;;;;;;;0.57;65.40;100363.84;4955219;28;101696;-74
2023/12/03 06:29:12;;;;;;;15.30;9.20;;;;;;;0.68;65.36;100370.81;4939936;28;99718;-74
2023/12/03 06:31:38;;;;;;;15.83;9.70;;;;;;;0.68;65.38;100372.53;4955879;28;98002;-74
2023/12/03 06:34:04;;;;;;;15.63;9.67;;;;;;;0.71;65.61;100382.03;4959713;28;96826;-74
2023/12/03 06:36:30;;;;;;;14.77;9.57;;;;;;;0.67;65.27;100382.03;4942295;28;101736;-74
2023/12/03 06:38:55;;;;;;;14.97;9.27;;;;;;;0.67;65.36;100376.00;4992639;28;101056;-75
2023/12/03 06:41:21;;;;;;;14.40;9.27;;;;;;;0.75;65.30;100368.28;4976079;28;96802;-74
2023/12/03 06:43:46;;;;;;;17.40;10.20;;;;;;;0.78;65.23;100386.38;4976090;28;97296;-74
2023/12/03 06:46:12;;;;;;;16.33;9.90;;;;;;;0.60;65.21;100381.94;4958161;28;100710;-74
2023/12/03 06:48:40;;;;;;;15.63;9.63;;;;;;;0.75;65.27;100389.81;4960153;28;97617;-74
2023/12/03 06:51:06;;;;;;;16.40;11.07;;;;;;;0.69;65.35;100407.84;4976238;28;97183;-74
2023/12/03 06:53:31;;;;;;;16.13;10.50;;;;;;;0.75;65.36;100399.28;4943029;28;96940;-74
2023/12/03 06:55:57;;;;;;;18.70;11.67;;;;;;;0.78;65.36;100407.06;4974490;28;101481;-74
2023/12/03 06:58:23;;;;;;;18.57;10.73;;;;;;;0.73;65.21;100403.56;4959743;28;98282;-74
2023/12/03 07:00:48;;;;;;;18.27;11.23;;;;;;;0.69;65.79;100415.59;4956298;28;96919;-74
2023/12/03 07:03:14;;;;;;;18.20;11.37;;;;;;;0.78;65.15;100423.41;4975746;28;96769;-74
2023/12/03 07:05:41;;;;;;;21.77;11.23;;;;;;;0.58;65.46;100424.97;4956470;28;100599;-73
2023/12/03 07:08:07;;;;;;;22.70;13.63;;;;;;;0.64;65.78;100425.03;4973059;28;97577;-74
2023/12/03 07:10:33;;;;;;;20.20;12.13;;;;;;;0.74;65.57;100437.19;4972916;28;97360;-76
2023/12/03 07:12:58;;;;;;;20.23;11.93;;;;;;;0.70;65.38;100439.72;4940234;28;96834;-75
2023/12/03 07:15:24;;;;;;;18.53;10.70;;;;;;;0.75;65.24;100430.28;4956591;28;101256;-74
2023/12/03 07:17:49;;;;;;;22.67;11.97;;;;;;;0.62;65.24;100437.94;4956407;28;98029;-74
2023/12/03 07:20:15;;;;;;;17.57;10.73;;;;;;;0.50;65.22;100449.91;4966738;28;97900;-74
2023/12/03 07:22:40;;;;;;;17.33;10.07;;;;;;;0.63;65.70;100449.16;4964143;28;97347;-74
2023/12/03 07:25:07;;;;;;;17.17;11.23;;;;;;;0.70;65.29;100458.69;4968768;28;98390;-73
2023/12/03 07:27:33;;;;;;;20.90;12.07;;;;;;;0.84;65.37;100463.94;4964980;28;100999;-74
2023/12/03 07:29:58;;;;;;;20.27;11.10;;;;;;;0.80;64.72;100467.38;4982814;28;97448;-75
2023/12/03 07:32:24;;;;;;;20.43;11.93;;;;;;;0.78;65.25;100469.06;4964560;28;96896;-74
2023/12/03 07:34:50;;;;;;;19.07;10.57;;;;;;;0.92;64.60;100474.38;4964618;28;101405;-74
2023/12/03 07:37:15;;;;;;;20.73;11.10;;;;;;;0.91;64.53;100458.00;4947834;28;101165;-74
2023/12/03 07:39:41;;;;;;;21.73;11.57;;;;;;;0.85;65.09;100476.91;4965320;28;96801;-74
2023/12/03 07:42:06;;;;;;;19.70;11.17;;;;;;;0.92;64.41;100482.13;4948648;28;96984;-74
2023/12/03 07:44:32;;;;;;;21.07;11.13;;;;;;;0.94;64.45;100481.28;4962924;28;100928;-74
2023/12/03 07:46:58;;;;;;;18.03;10.80;;;;;;;1.00;64.51;100483.91;4968712;28;98412;-74
2023/12/03 07:49:24;;;;;;;23.93;11.67;;;;;;;1.07;63.87;100467.56;4964877;28;96802;-74
2023/12/03 07:51:49;;;;;;;17.80;10.90;;;;;;;1.08;64.20;100487.41;4962459;28;97288;-74
2023/12/03 07:54:16;;;;;;;20.03;11.93;;;;;;;0.99;64.18;100483.88;4974963;28;98159;-74
2023/12/03 07:56:42;;;;;;;19.10;10.47;;;;;;;1.00;64.77;100496.84;4973842;28;101597;-74
2023/12/03 07:59:08;;;;;;;21.03;11.40;;;;;;;1.10;64.45;100490.00;4962395;28;97280;-76
2023/12/03 08:01:34;;;;;;;22.30;11.80;;;;;;;1.27;64.52;100497.88;4967401;28;96896;-74
2023/12/03 08:03:59;;;;;;;20.87;10.93;;;;;;;1.23;64.04;100498.72;4982492;28;98602;-74
2023/12/03 08:06:25;;;;;;;16.60;10.23;;;;;;;1.27;64.11;100505.63;4970022;28;97965;-77
2023/12/03 08:08:52;;;;;;;19.00;10.57;;;;;;;1.15;63.61;100496.06;4963678;28;96854;-74
2023/12/03 08:11:17;;;;;;;18.53;11.27;;;;;;;1.15;63.83;100498.66;4949091;28;97665;-74
2023/12/03 08:13:43;;;;;;;17.63;9.97;;;;;;;1.30;63.56;100496.19;4942412;28;101289;-74
2023/12/03 08:16:10;;;;;;;19.60;10.63;;;;;;;1.23;63.47;100499.59;4977133;28;101202;-74
2023/12/03 08:18:37;;;;;;;16.63;9.97;;;;;;;1.16;63.57;100491.75;4960994;28;96797;-74
2023/12/03 08:21:03;;;;;;;15.77;9.80;;;;;;;1.40;63.71;100522.09;4965533;28;97941;-74
2023/12/03 08:23:29;;;;;;;16.80;10.43;;;;;;;1.52;63.23;100530.81;4956349;28;101198;-75
2023/12/03 08:25:54;;;;;;;19.63;11.77;;;;;;;1.61;62.92;100524.84;4986422;28;100765;-76
2023/12/03 08:28:20;;;;;;;18.23;10.60;;;;;;;1.53;62.96;100532.53;4963441;28;97227;-74
2023/12/03 08:30:47;;;;;;;19.03;11.17;;;;;;;1.76;62.28;100537.00;4950065;28;97099;-74
2023/12/03 08:33:14;;;;;;;16.30;9.80;;;;;;;1.88;62.21;100533.59;4957397;28;101219;-74
2023/12/03 08:35:39;;;;;;;17.30;10.40;;;;;;;1.96;61.92;100542.28;4988204;28;101973;-75
2023/12/03 08:38:05;;;;;;;19.37;11.57;;;;;;;2.27;61.37;100543.25;4984507;28;97856;-74
2023/12/03 08:40:32;;;;;;;17.70;11.17;;;;;;;2.80;59.78;100542.50;5007675;28;96887;-74
2023/12/03 08:42:57;;;;;;;20.90;11.53;;;;;;;3.03;59.43;100549.44;4960788;28;101391;-73
2023/12/03 08:45:23;;;;;;;21.30;11.40;;;;;;;3.38;58.44;100552.03;4984959;28;98199;-74
2023/12/03 08:47:48;;;;;;;19.00;12.33;;;;;;;3.57;57.25;100547.66;4968357;28;97226;-74
2023/12/03 08:50:14;;;;;;;21.43;13.03;;;;;;;3.80;56.72;100552.81;4962544;28;97362;-74
2023/12/03 08:52:39;;;;;;;18.13;11.13;;;;;;;4.26;56.43;100553.50;4976794;28;98192;-76
2023/12/03 08:55:06;;;;;;;18.20;11.80;;;;;;;4.25;55.35;100546.59;4976799;28;97679;-74
2023/12/03 08:57:32;;;;;;;20.63;11.63;;;;;;;4.61;54.62;100562.00;4977834;28;96795;-74
2023/12/03 08:59:57;;;;;;;18.87;11.23;;;;;;;4.92;53.72;100550.53;4962750;28;96915;-75
2023/12/03 09:02:23;;;;;;;18.80;11.20;;;;;;;5.07;52.67;100567.75;4964064;28;98039;-74
2023/12/03 09:04:51;;;;;;;17.13;11.73;;;;;;;5.38;52.38;100565.78;4968936;28;98008;-76
2023/12/03 09:07:17;;;;;;;16.63;10.77;;;;;;;5.40;52.34;100561.41;4973295;28;97494;-76
2023/12/03 09:09:42;;;;;;;19.65;11.60;;;;;;;5.54;51.85;100576.06;4963272;28;96844;-74
2023/12/03 09:12:08;;;;;;;19.58;12.30;;;;;;;5.95;51.67;100567.84;4972504;28;98044;-74
2023/12/03 09:14:34;;;;;;;19.48;12.25;;;;;;;5.67;51.02;100581.13;4962490;28;101310;-74
2023/12/03 09:17:00;;;;;;;18.63;11.38;;;;;;;5.79;50.67;100581.88;4975581;28;97377;-75
2023/12/03 09:19:25;;;;;;;16.70;10.75;;;;;;;5.72;50.56;100572.41;4953381;28;97471;-79
2023/12/03 09:21:51;;;;;;;17.25;11.20;;;;;;;5.82;50.75;100568.84;4974304;28;101460;-75
2023/12/03 09:24:16;;;;;;;19.52;11.65;;;;;;;6.09;49.83;100588.53;4963834;28;97387;-74
2023/12/03 09:26:46;;;;;;;17.10;9.63;;;;;;;6.04;49.62;100587.72;4955123;28;97632;-74
2023/12/03 09:29:12;;;;;;;17.50;10.55;;;;;;;5.77;50.26;100589.72;4941569;28;98561;-75
2023/12/03 09:31:41;;;;;;;18.35;11.60;;;;;;;5.93;49.54;100599.97;4975910;28;97945;-75
2023/12/03 09:34:07;;;;;;;20.58;11.57;;;;;;;5.74;49.96;100594.09;4978064;28;98024;-74
2023/12/03 09:36:33;;;;;;;17.23;11.13;;;;;;;5.65;50.82;100605.47;4964368;28;96975;-74
2023/12/03 09:38:59;;;;;;;16.50;10.18;;;;;;;5.72;50.10;100606.25;4973037;28;97146;-74
2023/12/03 09:41:25;;;;;;;19.30;10.27;;;;;;;5.88;49.89;100613.06;4977168;28;97565;-76
2023/12/03 09:43:54;;;;;;;16.60;10.75;;;;;;;5.94;49.95;100605.22;4958498;28;101193;-75
2023/12/03 09:46:23;;;;;;;15.68;10.15;;;;;;;5.89;49.27;100609.56;4960793;28;97675;-76
2023/12/03 09:48:49;;;;;;;22.67;10.98;;;;;;;5.90;49.14;100600.84;4978018;28;97399;-75
2023/12/03 09:51:15;;;;;;;14.40;8.93;;;;;;;5.67;48.88;100594.16;4944327;28;101486;-75
2023/12/03 09:53:45;;;;;;;17.65;10.32;;;;;;;5.90;49.07;100608.69;4957374;28;98077;-77
2023/12/03 09:56:14;;;;;;;17.45;9.52;;;;;;;5.93;49.40;100597.38;4960206;28;97417;-76
2023/12/03 09:58:42;;;;;;;17.42;9.80;;;;;;;5.94;49.23;100601.75;4967873;28;97333;-75
2023/12/03 10:01:07;;;;;;;15.25;10.50;;;;;;;5.65;48.98;100608.06;4969955;28;98221;-74
2023/12/03 10:03:33;;;;;;;14.45;8.60;;;;;;;5.22;49.11;100605.81;4964502;28;97844;-75
2023/12/03 10:05:59;;;;;;;16.05;10.13;;;;;;;4.95;49.90;100609.50;4962789;28;96916;-74
2023/12/03 10:08:25;;;;;;;14.23;8.60;;;;;;;5.24;49.59;100609.28;4960017;28;97516;-76
2023/12/03 10:10:55;;;;;;;14.32;8.98;;;;;;;5.17;49.66;100598.03;4950609;28;97509;-75
2023/12/03 10:13:21;;;;;;;14.75;8.68;;;;;;;5.23;49.60;100589.31;4963102;28;98007;-74
2023/12/03 10:15:47;;;;;;;16.45;9.25;;;;;;;5.26;49.31;100596.25;4965520;28;97506;-74
2023/12/03 10:18:12;;;;;;;16.33;9.57;;;;;;;5.30;49.19;100595.38;4955789;28;97075;-74
2023/12/03 10:20:39;;;;;;;11.93;7.70;;;;;;;5.40;49.80;100600.47;4963239;28;97682;-74
2023/12/03 10:23:13;;;;;;;13.73;8.85;;;;;;;5.20;49.25;100604.97;4961240;28;101358;-75
2023/12/03 10:25:39;;;;;;;13.60;8.67;;;;;;;5.12;49.54;100607.63;4972951;28;97393;-74
2023/12/03 10:28:08;;;;;;;15.88;9.93;;;;;;;4.97;49.77;100612.91;4956447;28;97331;-74
2023/12/03 10:30:35;;;;;;;14.53;9.33;;;;;;;4.85;50.31;100616.47;4971373;28;98614;-75
2023/12/03 10:33:01;;;;;;;14.50;9.47;;;;;;;4.64;50.33;100614.00;4966980;28;98451;-73
2023/12/03 10:35:32;;;;;;;16.17;9.43;;;;;;;4.60;50.92;100622.69;4959035;28;99915;-76
2023/12/03 10:37:57;;;;;;;16.58;10.07;;;;;;;4.66;50.62;100614.88;4978137;28;98084;-74
2023/12/03 10:40:23;;;;;;;16.00;10.47;;;;;;;4.49;50.85;100623.59;4959792;28;97557;-75
2023/12/03 10:42:48;;;;;;;16.83;10.87;;;;;;;4.18;51.22;100624.56;4954713;28;100543;-74
2023/12/03 10:45:15;;;;;;;17.40;10.77;;;;;;;4.25;51.43;100639.28;4964407;28;98104;-74
2023/12/03 10:47:42;;;;;;;16.58;10.18;;;;;;;4.06;51.85;100636.72;4950870;28;97222;-74
2023/12/03 10:50:09;;;;;;;20.17;11.33;;;;;;;3.96;51.93;100635.03;4952653;28;100570;-78
2023/12/03 10:52:37;;;;;;;17.77;11.57;;;;;;;4.00;52.45;100631.53;4946767;28;102007;-74
2023/12/03 10:55:03;;;;;;;17.23;11.27;;;;;;;3.90;52.54;100619.47;4953081;28;96992;-76
2023/12/03 10:57:32;;;;;;;19.40;12.07;;;;;;;4.13;52.39;100632.41;4956300;28;97083;-74
2023/12/03 11:00:09;;;;;;;15.63;10.17;;;;;;;4.23;52.50;100635.81;4970336;28;97385;-77
2023/12/03 11:02:46;;;;;;;18.40;11.60;;;;;;;4.32;52.43;100631.44;4950477;28;101403;-74
2023/12/03 11:05:25;;;;;;;14.83;10.30;;;;;;;4.36;52.30;100628.84;4973755;28;96944;-73
2023/12/03 11:07:51;;;;;;;18.50;11.60;;;;;;;4.35;52.52;100637.53;4949862;28;96784;-74
2023/12/03 11:10:17;;;;;;;19.53;11.43;;;;;;;4.13;52.65;100640.19;4939236;28;99857;-75
2023/12/03 11:12:43;;;;;;;17.60;11.07;;;;;;;4.28;53.17;100645.34;4964144;28;97860;-75
2023/12/03 11:15:09;;;;;;;19.80;11.60;;;;;;;4.19;53.09;100649.69;4971094;28;97300;-75